createdAt,value
2023-08-12T00:01:47.127Z,101357.09
2023-08-12T00:03:43.241Z,101352.13
2023-08-12T00:05:42.343Z,101355.88
2023-08-12T00:07:37.437Z,101357.94
2023-08-12T00:09:30.188Z,101360.63
2023-08-12T00:11:25.713Z,101358.97
2023-08-12T00:13:19.073Z,101362.47
2023-08-12T00:15:14.653Z,101365.78
2023-08-12T00:17:10.379Z,101357.72
2023-08-12T00:19:03.288Z,101364.09
2023-08-12T00:21:01.404Z,101361.66
2023-08-12T00:22:56.570Z,101357.50
2023-08-12T00:24:49.237Z,101351.94
2023-08-12T00:26:44.896Z,101352.34
2023-08-12T00:28:40.293Z,101351.13
2023-08-12T00:30:35.708Z,101358.94
2023-08-12T00:32:28.251Z,101356.88
2023-08-12T00:34:23.544Z,101347.00
2023-08-12T00:36:21.536Z,101346.78
2023-08-12T00:38:14.179Z,101339.53
2023-08-12T00:40:10.856Z,101343.06
2023-08-12T00:42:03.764Z,101339.75
2023-08-12T00:43:59.953Z,101339.16
2023-08-12T00:45:55.167Z,101337.91
2023-08-12T00:47:48.072Z,101335.84
2023-08-12T00:49:45.145Z,101328.84
2023-08-12T00:51:45.426Z,101329.66
2023-08-12T00:53:41.055Z,101327.59
2023-08-12T00:55:34.274Z,101331.94
2023-08-12T00:57:29.904Z,101318.72
2023-08-12T00:59:23.776Z,101314.59
2023-08-12T01:01:19.311Z,101318.31
2023-08-12T01:03:15.773Z,101316.44
2023-08-12T01:05:11.927Z,101308.78
2023-08-12T01:07:10.027Z,101304.25
2023-08-12T01:09:07.420Z,101306.31
2023-08-12T01:11:06.311Z,101302.38
2023-08-12T01:13:10.826Z,101302.97
2023-08-12T01:15:12.820Z,101297.84
2023-08-12T01:17:11.062Z,101297.63
2023-08-12T01:19:10.886Z,101295.97
2023-08-12T01:21:07.585Z,101299.91
2023-08-12T01:23:17.923Z,101294.09
2023-08-12T01:25:13.211Z,101286.88
2023-08-12T01:27:10.850Z,101287.28
2023-08-12T01:29:10.508Z,101291.63
2023-08-12T01:31:13.547Z,101292.25
2023-08-12T01:33:18.654Z,101289.97
2023-08-12T01:35:18.785Z,101297.97
2023-08-12T01:37:15.541Z,101283.13
2023-08-12T01:39:15.139Z,101286.63
2023-08-12T01:41:12.402Z,101274.06
2023-08-12T01:43:06.269Z,101279.81
2023-08-12T01:45:02.548Z,101280.25
2023-08-12T01:46:57.951Z,101279.44
2023-08-12T01:48:53.447Z,101267.44
2023-08-12T01:50:49.041Z,101280.84
2023-08-12T01:52:44.515Z,101280.03
2023-08-12T01:54:39.602Z,101276.28
2023-08-12T01:56:34.691Z,101263.31
2023-08-12T01:58:27.695Z,101267.03
2023-08-12T02:00:22.778Z,101268.06
2023-08-12T02:02:15.421Z,101270.75
2023-08-12T02:04:10.833Z,101264.94
2023-08-12T02:06:03.368Z,101258.34
2023-08-12T02:07:58.778Z,101263.31
2023-08-12T02:09:56.397Z,101256.69
2023-08-12T02:11:48.827Z,101259.16
2023-08-12T02:13:44.292Z,101242.06
2023-08-12T02:15:39.352Z,101253.41
2023-08-12T02:17:34.491Z,101251.31
2023-08-12T02:19:30.040Z,101241.03
2023-08-12T02:21:22.483Z,101232.97
2023-08-12T02:23:17.897Z,101239.38
2023-08-12T02:25:15.942Z,101244.31
2023-08-12T02:27:11.120Z,101248.44
2023-08-12T02:29:06.513Z,101234.22
2023-08-12T02:31:01.970Z,101239.53
2023-08-12T02:32:54.478Z,101226.16
2023-08-12T02:34:49.592Z,101231.13
2023-08-12T02:36:45.228Z,101221.63
2023-08-12T02:38:40.225Z,101218.13
2023-08-12T02:40:38.211Z,101220.81
2023-08-12T02:42:33.936Z,101216.91
2023-08-12T02:44:29.275Z,101219.59
2023-08-12T02:46:26.276Z,101213.41
2023-08-12T02:48:22.197Z,101218.13
2023-08-12T02:50:17.906Z,101221.81
2023-08-12T02:52:13.578Z,101214.41
2023-08-12T02:54:09.300Z,101222.03
2023-08-12T02:56:07.714Z,101211.53
2023-08-12T02:58:03.326Z,101210.69
2023-08-12T02:59:56.166Z,101207.19
2023-08-12T03:01:51.820Z,101205.56
2023-08-12T03:03:47.170Z,101202.66
2023-08-12T03:05:44.706Z,101196.91
2023-08-12T03:07:40.338Z,101207.16
2023-08-12T03:09:35.691Z,101197.09
2023-08-12T03:11:34.243Z,101195.84
2023-08-12T03:13:29.415Z,101207.97
2023-08-12T03:15:25.156Z,101206.47
2023-08-12T03:17:20.457Z,101196.38
2023-08-12T03:19:15.813Z,101204.66
2023-08-12T03:21:11.073Z,101199.69
2023-08-12T03:23:06.838Z,101198.63
2023-08-12T03:25:01.875Z,101195.97
2023-08-12T03:26:59.551Z,101195.75
2023-08-12T03:28:52.430Z,101195.34
2023-08-12T03:30:54.570Z,101192.47
2023-08-12T03:32:50.106Z,101199.28
2023-08-12T03:34:45.240Z,101196.41
2023-08-12T03:36:40.643Z,101184.22
2023-08-12T03:38:37.233Z,101175.16
2023-08-12T03:40:32.767Z,101189.38
2023-08-12T03:42:27.854Z,101187.53
2023-08-12T03:44:23.441Z,101184.00
2023-08-12T03:46:18.605Z,101179.47
2023-08-12T03:48:13.739Z,101177.63
2023-08-12T03:50:10.501Z,101177.38
2023-08-12T03:52:08.198Z,101177.38
2023-08-12T03:54:03.701Z,101176.75
2023-08-12T03:55:59.111Z,101177.78
2023-08-12T03:57:56.768Z,101172.03
2023-08-12T03:59:51.836Z,101171.22
2023-08-12T04:01:44.651Z,101172.88
2023-08-12T04:03:39.860Z,101169.97
2023-08-12T04:05:35.026Z,101166.25
2023-08-12T04:07:30.578Z,101166.66
2023-08-12T04:09:25.584Z,101169.34
2023-08-12T04:11:18.028Z,101160.88
2023-08-12T04:13:16.166Z,101159.22
2023-08-12T04:15:12.440Z,101161.88
2023-08-12T04:17:07.983Z,101161.19
2023-08-12T04:19:03.070Z,101157.31
2023-08-12T04:20:58.152Z,101150.75
2023-08-12T04:22:53.584Z,101155.09
2023-08-12T04:24:48.644Z,101150.09
2023-08-12T04:26:43.759Z,101147.41
2023-08-12T04:28:42.048Z,101152.38
2023-08-12T04:30:34.599Z,101150.69
2023-08-12T04:32:29.705Z,101156.88
2023-08-12T04:34:25.162Z,101158.31
2023-08-12T04:36:20.223Z,101157.25
2023-08-12T04:38:16.673Z,101161.16
2023-08-12T04:40:13.342Z,101155.81
2023-08-12T04:42:09.406Z,101161.72
2023-08-12T04:44:08.269Z,101161.09
2023-08-12T04:46:03.417Z,101157.41
2023-08-12T04:48:00.865Z,101166.25
2023-08-12T04:49:56.280Z,101164.16
2023-08-12T04:51:48.715Z,101162.34
2023-08-12T04:53:43.823Z,101162.34
2023-08-12T04:55:39.492Z,101154.72
2023-08-12T04:57:34.517Z,101162.91
2023-08-12T04:59:32.210Z,101152.41
2023-08-12T05:01:28.239Z,101156.72
2023-08-12T05:03:23.367Z,101154.06
2023-08-12T05:05:18.947Z,101159.22
2023-08-12T05:07:11.865Z,101155.53
2023-08-12T05:09:07.766Z,101154.50
2023-08-12T05:11:02.827Z,101154.72
2023-08-12T05:13:01.171Z,101152.22
2023-08-12T05:14:59.095Z,101153.03
2023-08-12T05:16:54.766Z,101146.88
2023-08-12T05:18:47.659Z,101144.84
2023-08-12T05:20:56.973Z,101140.09
2023-08-12T05:22:54.877Z,101137.44
2023-08-12T05:24:49.872Z,101142.78
2023-08-12T05:26:44.960Z,101148.56
2023-08-12T05:28:40.470Z,101147.34
2023-08-12T05:30:38.937Z,101157.84
2023-08-12T05:32:31.527Z,101148.59
2023-08-12T05:34:28.279Z,101145.72
2023-08-12T05:36:23.410Z,101141.63
2023-08-12T05:38:18.812Z,101136.72
2023-08-12T05:40:12.827Z,101130.13
2023-08-12T05:42:08.382Z,101133.06
2023-08-12T05:44:01.152Z,101127.09
2023-08-12T05:45:58.876Z,101130.19
2023-08-12T05:47:53.974Z,101131.25
2023-08-12T05:49:46.813Z,101132.50
2023-08-12T05:51:42.674Z,101136.63
2023-08-12T05:53:37.779Z,101129.03
2023-08-12T05:55:33.267Z,101128.84
2023-08-12T05:57:27.510Z,101122.03
2023-08-12T05:59:24.404Z,101121.03
2023-08-12T06:01:23.493Z,101130.28
2023-08-12T06:03:18.589Z,101123.69
2023-08-12T06:05:11.486Z,101134.84
2023-08-12T06:07:06.553Z,101131.97
2023-08-12T06:08:59.098Z,101127.00
2023-08-12T06:10:54.602Z,101137.16
2023-08-12T06:12:52.694Z,101132.41
2023-08-12T06:14:48.256Z,101137.59
2023-08-12T06:16:45.941Z,101136.34
2023-08-12T06:18:38.934Z,101130.56
2023-08-12T06:20:34.125Z,101133.47
2023-08-12T06:22:30.695Z,101135.09
2023-08-12T06:24:26.584Z,101125.03
2023-08-12T06:26:22.457Z,101130.00
2023-08-12T06:28:15.611Z,101128.53
2023-08-12T06:30:15.782Z,101125.47
2023-08-12T06:33:00.596Z,101124.00
2023-08-12T06:35:51.125Z,101128.97
2023-08-12T06:37:49.825Z,101128.34
2023-08-12T06:39:45.636Z,101135.56
2023-08-12T06:41:42.234Z,101140.09
2023-08-12T06:43:37.555Z,101141.94
2023-08-12T06:45:33.547Z,101137.63
2023-08-12T06:47:31.067Z,101137.00
2023-08-12T06:49:26.708Z,101131.25
2023-08-12T06:51:32.712Z,101131.84
2023-08-12T06:53:29.364Z,101130.00
2023-08-12T06:55:26.269Z,101124.44
2023-08-12T06:57:21.951Z,101124.44
2023-08-12T06:59:17.471Z,101129.56
2023-08-12T07:01:15.408Z,101125.25
2023-08-12T07:03:11.406Z,101126.69
2023-08-12T07:05:04.685Z,101128.75
2023-08-12T07:07:03.474Z,101128.56
2023-08-12T07:08:58.571Z,101121.94
2023-08-12T07:10:54.072Z,101121.34
2023-08-12T07:12:46.475Z,101112.69
2023-08-12T07:14:41.581Z,101120.13
2023-08-12T07:16:40.215Z,101117.63
2023-08-12T07:18:36.937Z,101111.63
2023-08-12T07:20:29.864Z,101104.22
2023-08-12T07:22:27.783Z,101110.41
2023-08-12T07:24:23.560Z,101111.47
2023-08-12T07:26:18.885Z,101106.66
2023-08-12T07:28:14.587Z,101108.72
2023-08-12T07:30:11.700Z,101112.22
2023-08-12T07:32:08.423Z,101114.28
2023-08-12T07:34:01.230Z,101108.47
2023-08-12T07:35:56.586Z,101107.03
2023-08-12T07:37:52.372Z,101098.78
2023-08-12T07:39:47.714Z,101101.22
2023-08-12T07:41:43.416Z,101103.03
2023-08-12T07:43:38.765Z,101110.66
2023-08-12T07:45:34.479Z,101108.38
2023-08-12T07:47:30.078Z,101108.34
2023-08-12T07:49:25.910Z,101104.81
2023-08-12T07:51:21.211Z,101107.06
2023-08-12T07:53:19.558Z,101100.91
2023-08-12T07:55:14.982Z,101099.19
2023-08-12T07:57:13.459Z,101096.09
2023-08-12T07:59:09.207Z,101096.25
2023-08-12T08:01:02.172Z,101093.53
2023-08-12T08:02:57.905Z,101099.53
2023-08-12T08:04:50.632Z,101096.81
2023-08-12T08:06:45.783Z,101100.13
2023-08-12T08:08:43.848Z,101095.59
2023-08-12T08:10:39.109Z,101095.19
2023-08-12T08:12:34.521Z,101094.31
2023-08-12T08:14:29.660Z,101086.97
2023-08-12T08:16:25.523Z,101092.03
2023-08-12T08:18:21.155Z,101091.22
2023-08-12T08:20:16.589Z,101088.16
2023-08-12T08:22:09.134Z,101095.41
2023-08-12T08:24:07.492Z,101092.72
2023-08-12T08:26:02.529Z,101092.22
2023-08-12T08:27:55.401Z,101088.66
2023-08-12T08:29:53.518Z,101094.91
2023-08-12T08:31:46.369Z,101089.78
2023-08-12T08:33:43.294Z,101095.56
2023-08-12T08:35:37.958Z,101096.88
2023-08-12T08:37:33.329Z,101090.91
2023-08-12T08:39:31.299Z,101092.94
2023-08-12T08:41:27.967Z,101092.53
2023-08-12T08:43:25.969Z,101098.13
2023-08-12T08:45:21.953Z,101094.78
2023-08-12T08:47:19.873Z,101098.31
2023-08-12T08:49:17.968Z,101092.09
2023-08-12T08:51:14.873Z,101088.31
2023-08-12T08:53:11.229Z,101092.66
2023-08-12T08:55:10.353Z,101084.97
2023-08-12T08:57:12.778Z,101086.00
2023-08-12T08:59:22.356Z,101093.69
2023-08-12T09:01:19.710Z,101095.47
2023-08-12T09:03:18.447Z,101097.13
2023-08-12T09:05:12.443Z,101089.00
2023-08-12T09:07:08.252Z,101098.25
2023-08-12T09:09:05.440Z,101104.81
2023-08-12T09:11:05.881Z,101100.56
2023-08-12T09:12:59.023Z,101098.31
2023-08-12T09:14:54.130Z,101093.44
2023-08-12T09:16:49.477Z,101092.03
2023-08-12T09:18:44.305Z,101085.03
2023-08-12T09:20:39.454Z,101077.97
2023-08-12T09:22:31.964Z,101078.84
2023-08-12T09:24:31.018Z,101090.41
2023-08-12T09:26:28.677Z,101096.38
2023-08-12T09:28:24.037Z,101090.63
2023-08-12T09:30:19.159Z,101085.88
2023-08-12T09:32:12.803Z,101086.78
2023-08-12T09:34:10.308Z,101070.75
2023-08-12T09:36:03.573Z,101084.34
2023-08-12T09:37:59.014Z,101077.94
2023-08-12T09:39:55.085Z,101075.63
2023-08-12T09:41:53.624Z,101073.66
2023-08-12T09:43:48.751Z,101072.75
2023-08-12T09:45:43.886Z,101071.69
2023-08-12T09:47:42.835Z,101070.41
2023-08-12T09:49:38.765Z,101071.72
2023-08-12T09:51:36.442Z,101059.03
2023-08-12T09:53:31.607Z,101067.47
2023-08-12T09:55:28.972Z,101059.25
2023-08-12T09:57:30.920Z,101057.75
2023-08-12T09:59:28.032Z,101065.50
2023-08-12T10:01:24.478Z,101064.56
2023-08-12T10:03:23.604Z,101073.50
2023-08-12T10:05:26.370Z,101064.09
2023-08-12T10:07:23.015Z,101071.59
2023-08-12T10:09:17.441Z,101062.81
2023-08-12T10:11:14.436Z,101057.91
2023-08-12T10:13:13.644Z,101064.09
2023-08-12T10:15:10.703Z,101057.22
2023-08-12T10:17:06.902Z,101054.38
2023-08-12T10:19:03.702Z,101052.47
2023-08-12T10:20:59.640Z,101047.16
2023-08-12T10:22:55.938Z,101041.22
2023-08-12T10:24:51.833Z,101043.97
2023-08-12T10:26:49.095Z,101043.06
2023-08-12T10:28:47.185Z,101033.72
2023-08-12T10:30:43.976Z,101028.44
2023-08-12T10:32:36.943Z,101035.09
2023-08-12T10:34:32.325Z,101034.63
2023-08-12T10:36:27.941Z,101025.63
2023-08-12T10:38:24.429Z,101026.91
2023-08-12T10:40:23.311Z,101031.63
2023-08-12T10:42:48.506Z,101016.63
2023-08-12T10:44:54.118Z,101017.19
2023-08-12T10:46:54.806Z,101007.00
2023-08-12T10:49:00.439Z,101023.16
2023-08-12T10:50:58.860Z,101030.78
2023-08-12T10:52:56.687Z,101040.88
2023-08-12T10:54:52.195Z,101033.25
2023-08-12T10:57:06.387Z,101039.13
2023-08-12T10:59:04.337Z,101034.41
2023-08-12T11:01:01.391Z,101039.44
2023-08-12T11:02:55.285Z,101042.88
2023-08-12T11:04:53.167Z,101024.34
2023-08-12T11:06:50.120Z,101019.53
2023-08-12T11:08:50.880Z,101028.44
2023-08-12T11:10:44.538Z,101015.28
2023-08-12T11:12:40.436Z,101034.41
2023-08-12T11:14:51.390Z,101020.47
2023-08-12T11:16:48.283Z,101018.47
2023-08-12T11:18:45.258Z,101025.66
2023-08-12T11:20:39.094Z,101022.31
2023-08-12T11:22:34.737Z,101028.19
2023-08-12T11:24:33.084Z,101025.28
2023-08-12T11:26:28.753Z,101016.63
2023-08-12T11:28:24.036Z,101020.84
2023-08-12T11:30:21.558Z,101019.78
2023-08-12T11:32:16.776Z,101026.09
2023-08-12T11:34:12.116Z,101033.84
2023-08-12T11:36:07.994Z,101032.09
2023-08-12T11:38:03.418Z,101028.44
2023-08-12T11:39:56.424Z,101030.78
2023-08-12T11:41:51.674Z,101033.25
2023-08-12T11:43:47.013Z,101032.28
2023-08-12T11:45:45.930Z,101036.94
2023-08-12T11:47:39.874Z,101038.22
2023-08-12T11:49:35.014Z,101036.47
2023-08-12T11:51:27.958Z,101033.06
2023-08-12T11:53:23.435Z,101045.94
2023-08-12T11:55:19.696Z,101037.63
2023-08-12T11:57:12.409Z,101034.81
2023-08-12T11:59:07.625Z,101030.97
2023-08-12T12:01:05.841Z,101033.88
2023-08-12T12:03:00.986Z,101026.97
2023-08-12T12:04:53.924Z,101024.75
2023-08-12T12:06:49.687Z,101036.53
2023-08-12T12:08:42.765Z,101023.13
2023-08-12T12:10:38.290Z,101031.66
2023-08-12T12:12:31.353Z,101045.72
2023-08-12T12:14:29.357Z,101048.50
2023-08-12T12:16:27.476Z,101031.34
2023-08-12T12:18:22.889Z,101044.81
2023-08-12T12:20:18.288Z,101042.09
2023-08-12T12:22:11.501Z,101044.44
2023-08-12T12:24:09.458Z,101032.03
2023-08-12T12:26:07.733Z,101030.72
2023-08-12T12:28:04.047Z,101023.69
2023-08-12T12:30:00.106Z,101015.03
2023-08-12T12:31:55.624Z,101014.22
2023-08-12T12:33:50.769Z,101009.78
2023-08-12T12:35:55.361Z,101003.09
2023-08-12T12:37:52.282Z,100992.69
2023-08-12T12:39:45.447Z,100965.31
2023-08-12T12:41:40.522Z,100945.47
2023-08-12T12:43:33.076Z,100934.31
2023-08-12T12:45:28.795Z,100931.97
2023-08-12T12:47:26.651Z,100925.06
2023-08-12T12:49:22.082Z,100928.78
2023-08-12T12:51:17.900Z,100926.28
2023-08-12T12:53:12.971Z,100924.28
2023-08-12T12:55:09.498Z,100918.75
2023-08-12T12:57:05.040Z,100921.88
2023-08-12T12:59:00.546Z,100916.94
2023-08-12T13:00:53.054Z,100922.06
2023-08-12T13:02:51.159Z,100920.44
2023-08-12T13:04:46.679Z,100924.69
2023-08-12T13:06:41.732Z,100918.50
2023-08-12T13:08:34.683Z,100913.25
2023-08-12T13:10:30.123Z,100907.16
2023-08-12T13:12:25.294Z,100919.19
2023-08-12T13:14:22.464Z,100911.66
2023-08-12T13:16:17.808Z,100908.00
2023-08-12T13:18:15.983Z,100908.75
2023-08-12T13:20:13.643Z,100912.91
2023-08-12T13:22:08.832Z,100910.34
2023-08-12T13:24:05.225Z,100898.06
2023-08-12T13:26:00.347Z,100901.34
2023-08-12T13:27:52.948Z,100900.66
2023-08-12T13:29:48.444Z,100898.28
2023-08-12T13:31:44.102Z,100891.38
2023-08-12T13:33:39.545Z,100890.75
2023-08-12T13:35:34.616Z,100890.09
2023-08-12T13:37:29.652Z,100889.84
2023-08-12T13:39:24.995Z,100885.75
2023-08-12T13:41:20.061Z,100893.09
2023-08-12T13:43:15.103Z,100887.94
2023-08-12T13:45:11.650Z,100885.28
2023-08-12T13:47:06.738Z,100885.53
2023-08-12T13:49:04.461Z,100883.91
2023-08-12T13:51:01.739Z,100875.47
2023-08-12T13:52:57.075Z,100876.22
2023-08-12T13:54:49.697Z,100875.19
2023-08-12T13:56:45.134Z,100876.56
2023-08-12T13:58:40.248Z,100874.75
2023-08-12T14:00:35.698Z,100873.28
2023-08-12T14:02:32.657Z,100872.97
2023-08-12T14:04:30.386Z,100876.19
2023-08-12T14:06:28.411Z,100876.22
2023-08-12T14:08:23.472Z,100879.22
2023-08-12T14:10:16.339Z,100860.06
2023-08-12T14:12:11.597Z,100869.81
2023-08-12T14:14:08.529Z,100862.31
2023-08-12T14:16:04.112Z,100872.53
2023-08-12T14:17:57.149Z,100863.81
2023-08-12T14:19:56.887Z,100870.50
2023-08-12T14:21:52.069Z,100861.69
2023-08-12T14:23:47.746Z,100863.41
2023-08-12T14:25:42.963Z,100862.63
2023-08-12T14:27:38.360Z,100861.56
2023-08-12T14:29:31.466Z,100862.22
2023-08-12T14:31:26.652Z,100846.88
2023-08-12T14:33:24.500Z,100846.47
2023-08-12T14:35:24.270Z,100848.81
2023-08-12T14:37:19.732Z,100852.25
2023-08-12T14:39:12.484Z,100840.69
2023-08-12T14:41:07.827Z,100839.28
2023-08-12T14:43:03.366Z,100843.66
2023-08-12T14:44:58.578Z,100847.78
2023-08-12T14:46:53.870Z,100853.09
2023-08-12T14:48:49.335Z,100849.91
2023-08-12T14:50:47.316Z,100847.44
2023-08-12T14:52:42.700Z,100841.13
2023-08-12T14:54:37.733Z,100836.38
2023-08-12T14:56:32.779Z,100826.06
2023-08-12T14:58:25.527Z,100828.19
2023-08-12T15:00:21.052Z,100820.25
2023-08-12T15:02:16.232Z,100820.47
2023-08-12T15:04:09.058Z,100815.06
2023-08-12T15:06:08.463Z,100815.09
2023-08-12T15:08:05.550Z,100810.81
2023-08-12T15:10:00.900Z,100809.00
2023-08-12T15:11:56.351Z,100802.91
2023-08-12T15:13:51.461Z,100803.22
2023-08-12T15:15:49.684Z,100800.56
2023-08-12T15:17:45.295Z,100796.63
2023-08-12T15:19:40.898Z,100792.84
2023-08-12T15:21:38.609Z,100799.28
2023-08-12T15:23:34.438Z,100805.31
2023-08-12T15:25:29.616Z,100806.56
2023-08-12T15:27:25.224Z,100793.94
2023-08-12T15:29:18.165Z,100800.97
2023-08-12T15:31:16.110Z,100792.00
2023-08-12T15:33:08.592Z,100790.69
2023-08-12T15:35:04.001Z,100787.91
2023-08-12T15:37:01.670Z,100786.31
2023-08-12T15:38:57.167Z,100789.91
2023-08-12T15:40:52.376Z,100800.50
2023-08-12T15:42:47.447Z,100796.97
2023-08-12T15:44:43.110Z,100790.38
2023-08-12T15:46:35.736Z,100792.72
2023-08-12T15:48:31.009Z,100789.72
2023-08-12T15:50:24.241Z,100791.97
2023-08-12T15:52:21.956Z,100793.13
2023-08-12T15:54:17.367Z,100784.44
2023-08-12T15:56:12.415Z,100787.16
2023-08-12T15:58:07.834Z,100786.19
2023-08-12T16:00:06.237Z,100777.88
2023-08-12T16:02:01.391Z,100780.06
2023-08-12T16:03:54.463Z,100779.31
2023-08-12T16:05:50.194Z,100776.19
2023-08-12T16:07:47.973Z,100776.53
2023-08-12T16:09:44.069Z,100769.28
2023-08-12T16:11:39.262Z,100777.72
2023-08-12T16:13:34.635Z,100776.47
2023-08-12T16:15:30.314Z,100773.94
2023-08-12T16:17:22.854Z,100769.69
2023-08-12T16:19:17.981Z,100763.44
2023-08-12T16:21:13.649Z,100764.72
2023-08-12T16:23:11.966Z,100761.16
2023-08-12T16:25:08.212Z,100764.41
2023-08-12T16:27:06.142Z,100760.59
2023-08-12T16:29:01.493Z,100755.47
2023-08-12T16:30:57.131Z,100748.66
2023-08-12T16:32:52.908Z,100754.06
2023-08-12T16:34:45.839Z,100750.75
2023-08-12T16:36:42.966Z,100745.06
2023-08-12T16:38:41.270Z,100752.66
2023-08-12T16:40:36.876Z,100745.88
2023-08-12T16:42:32.880Z,100747.16
2023-08-12T16:44:28.527Z,100740.63
2023-08-12T16:46:24.976Z,100747.13
2023-08-12T16:48:20.437Z,100733.00
2023-08-12T16:50:16.342Z,100734.06
2023-08-12T16:52:11.963Z,100730.09
2023-08-12T16:54:10.070Z,100728.13
2023-08-12T16:56:05.813Z,100726.22
2023-08-12T16:58:01.337Z,100725.97
2023-08-12T16:59:59.275Z,100729.34
2023-08-12T17:01:52.426Z,100724.19
2023-08-12T17:03:47.790Z,100736.94
2023-08-12T17:05:43.097Z,100734.28
2023-08-12T17:07:38.611Z,100740.47
2023-08-12T17:09:36.638Z,100747.69
2023-08-12T17:11:31.995Z,100750.41
2023-08-12T17:13:27.424Z,100745.72
2023-08-12T17:15:22.693Z,100752.22
2023-08-12T17:17:18.165Z,100748.97
2023-08-12T17:19:13.299Z,100748.41
2023-08-12T17:21:11.160Z,100746.47
2023-08-12T17:23:04.624Z,100736.03
2023-08-12T17:25:02.875Z,100737.38
2023-08-12T17:26:58.089Z,100737.28
2023-08-12T17:28:53.869Z,100740.84
2023-08-12T17:30:49.275Z,100741.75
2023-08-12T17:32:44.602Z,100744.16
2023-08-12T17:34:40.077Z,100741.81
2023-08-12T17:36:32.662Z,100747.72
2023-08-12T17:38:27.845Z,100749.34
2023-08-12T17:40:26.071Z,100749.84
2023-08-12T17:42:21.217Z,100739.63
2023-08-12T17:44:16.466Z,100747.50
2023-08-12T17:46:14.012Z,100747.91
2023-08-12T17:48:08.068Z,100743.28
2023-08-12T17:50:03.211Z,100740.44
2023-08-12T17:51:58.628Z,100744.66
2023-08-12T17:53:52.155Z,100736.28
2023-08-12T17:55:50.492Z,100741.94
2023-08-12T17:57:45.814Z,100740.22
2023-08-12T17:59:41.024Z,100741.84
2023-08-12T18:01:36.536Z,100741.91
2023-08-12T18:03:31.869Z,100737.84
2023-08-12T18:05:27.824Z,100748.75
2023-08-12T18:07:22.933Z,100752.22
2023-08-12T18:09:19.729Z,100758.09
2023-08-12T18:11:17.927Z,100772.34
2023-08-12T18:13:13.095Z,100774.22
2023-08-12T18:15:09.619Z,100777.84
2023-08-12T18:17:04.857Z,100791.13
2023-08-12T18:18:57.369Z,100820.31
2023-08-12T18:20:52.898Z,100806.19
2023-08-12T18:22:48.037Z,100807.28
2023-08-12T18:24:43.397Z,100852.03
2023-08-12T18:26:41.476Z,100857.53
2023-08-12T18:28:37.484Z,100895.38
2023-08-12T18:30:34.173Z,100916.16
2023-08-12T18:32:29.859Z,100922.75
2023-08-12T18:34:25.295Z,100918.41
2023-08-12T18:36:22.512Z,100927.91
2023-08-12T18:38:23.379Z,100917.59
2023-08-12T18:40:19.632Z,100911.00
2023-08-12T18:42:23.426Z,100894.75
2023-08-12T18:44:39.553Z,100908.69
2023-08-12T18:46:34.587Z,100912.41
2023-08-12T18:48:30.045Z,100919.88
2023-08-12T18:50:23.108Z,100915.59
2023-08-12T18:52:19.476Z,100910.63
2023-08-12T18:54:16.201Z,100906.44
2023-08-12T18:56:12.142Z,100897.69
2023-08-12T18:58:10.332Z,100885.94
2023-08-12T19:00:03.328Z,100885.38
2023-08-12T19:02:01.764Z,100889.44
2023-08-12T19:03:55.647Z,100881.91
2023-08-12T19:05:51.288Z,100871.75
2023-08-12T19:07:47.357Z,100861.97
2023-08-12T19:09:43.961Z,100859.88
2023-08-12T19:11:40.376Z,100861.75
2023-08-12T19:13:39.592Z,100865.47
2023-08-12T19:15:32.760Z,100864.16
2023-08-12T19:17:28.697Z,100852.22
2023-08-12T19:19:24.136Z,100848.94
2023-08-12T19:21:19.810Z,100854.31
2023-08-12T19:23:17.085Z,100865.84
2023-08-12T19:25:12.962Z,100863.88
2023-08-12T19:27:07.536Z,100859.44
2023-08-12T19:29:05.854Z,100858.63
2023-08-12T19:30:58.777Z,100861.09
2023-08-12T19:32:56.670Z,100863.63
2023-08-12T19:34:52.129Z,100856.03
2023-08-12T19:36:48.201Z,100857.06
2023-08-12T19:38:43.848Z,100862.38
2023-08-12T19:40:36.737Z,100867.28
2023-08-12T19:42:32.519Z,100859.91
2023-08-12T19:44:30.588Z,100859.53
2023-08-12T19:46:26.020Z,100861.00
2023-08-12T19:48:19.073Z,100864.28
2023-08-12T19:50:15.679Z,100867.81
2023-08-12T19:52:11.436Z,100874.00
2023-08-12T19:54:07.934Z,100869.06
2023-08-12T19:56:03.513Z,100864.97
2023-08-12T19:57:59.393Z,100875.94
2023-08-12T19:59:57.394Z,100874.75
2023-08-12T20:01:52.620Z,100871.78
2023-08-12T20:03:48.125Z,100875.25
2023-08-12T20:05:40.857Z,100873.47
2023-08-12T20:07:36.117Z,100878.41
2023-08-12T20:09:31.493Z,100879.28
2023-08-12T20:11:26.818Z,100871.53
2023-08-12T20:13:22.356Z,100867.63
2023-08-12T20:15:17.875Z,100873.00
2023-08-12T20:17:13.131Z,100872.03
2023-08-12T20:19:09.868Z,100874.88
2023-08-12T20:21:05.078Z,100872.88
2023-08-12T20:23:05.953Z,100876.41
2023-08-12T20:25:01.782Z,100883.22
2023-08-12T20:26:54.393Z,100885.47
2023-08-12T20:28:49.977Z,100883.25
2023-08-12T20:30:47.655Z,100885.91
2023-08-12T20:32:40.759Z,100888.66
2023-08-12T20:34:36.110Z,100889.31
2023-08-12T20:36:31.404Z,100885.25
2023-08-12T20:38:26.929Z,100886.47
2023-08-12T20:40:22.336Z,100891.81
2023-08-12T20:42:15.052Z,100892.25
2023-08-12T20:44:10.542Z,100889.03
2023-08-12T20:46:08.573Z,100897.47
2023-08-12T20:48:04.404Z,100901.78
2023-08-12T20:49:57.390Z,100905.94
2023-08-12T20:51:52.447Z,100907.19
2023-08-12T20:53:48.035Z,100912.56
2023-08-12T20:55:40.742Z,100909.13
2023-08-12T20:57:35.912Z,100913.69
2023-08-12T20:59:28.872Z,100918.84
2023-08-12T21:01:26.635Z,100925.06
2023-08-12T21:03:22.083Z,100925.03
2023-08-12T21:05:15.227Z,100928.16
2023-08-12T21:07:10.636Z,100928.38
2023-08-12T21:09:06.988Z,100931.03
2023-08-12T21:11:02.455Z,100930.41
2023-08-12T21:12:57.557Z,100939.25
2023-08-12T21:14:52.943Z,100936.81
2023-08-12T21:16:51.025Z,100937.63
2023-08-12T21:18:46.459Z,100950.00
2023-08-12T21:20:40.425Z,100942.19
2023-08-12T21:22:35.605Z,100937.00
2023-08-12T21:24:31.200Z,100938.63
2023-08-12T21:26:23.722Z,100941.50
2023-08-12T21:28:18.793Z,100945.22
2023-08-12T21:30:12.904Z,100940.50
2023-08-12T21:32:10.809Z,100947.84
2023-08-12T21:34:06.340Z,100949.09
2023-08-12T21:36:02.161Z,100948.09
2023-08-12T21:37:58.683Z,100944.38
2023-08-12T21:39:55.719Z,100940.28
2023-08-12T21:41:50.768Z,100937.50
2023-08-12T21:43:45.908Z,100935.63
2023-08-12T21:45:41.319Z,100940.19
2023-08-12T21:47:39.166Z,100946.28
2023-08-12T21:49:34.571Z,100939.31
2023-08-12T21:51:27.213Z,100944.84
2023-08-12T21:53:22.323Z,100944.00
2023-08-12T21:55:17.902Z,100949.16
2023-08-12T21:57:11.677Z,100950.94
2023-08-12T21:59:07.231Z,100957.81
2023-08-12T22:01:03.623Z,100956.38
2023-08-12T22:03:01.988Z,100953.94
2023-08-12T22:04:57.869Z,100949.19
2023-08-12T22:06:53.638Z,100949.38